sensor_id;sensor_type;location;lat;lon;timestamp;P1;durP1;ratioP1;P2;durP2;ratioP2
24409;SDS011;12543;53.364;-1.504;2022-08-19T00:02:02;1.10;;;1.10;;
24409;SDS011;12543;53.364;-1.504;2022-08-19T00:04:30;1.60;;;1.50;;
24409;SDS011;12543;53.364;-1.504;2022-08-19T00:07:03;1.63;;;1.50;;
24409;SDS011;12543;53.364;-1.504;2022-08-19T00:09:31;1.65;;;1.55;;
24409;SDS011;12543;53.364;-1.504;2022-08-19T00:11:58;2.45;;;1.30;;
24409;SDS011;12543;53.364;-1.504;2022-08-19T00:14:27;1.40;;;1.30;;
24409;SDS011;12543;53.364;-1.504;2022-08-19T00:16:58;1.30;;;1.30;;
24409;SDS011;12543;53.364;-1.504;2022-08-19T00:19:26;1.23;;;1.20;;
24409;SDS011;12543;53.364;-1.504;2022-08-19T00:21:53;1.77;;;1.67;;
24409;SDS011;12543;53.364;-1.504;2022-08-19T00:24:22;0.90;;;0.90;;
24409;SDS011;12543;53.364;-1.504;2022-08-19T00:26:49;1.38;;;1.20;;
24409;SDS011;12543;53.364;-1.504;2022-08-19T00:29:18;2.25;;;1.48;;
24409;SDS011;12543;53.364;-1.504;2022-08-19T00:31:47;3.00;;;1.30;;
24409;SDS011;12543;53.364;-1.504;2022-08-19T00:34:16;3.38;;;1.35;;
24409;SDS011;12543;53.364;-1.504;2022-08-19T00:36:43;3.25;;;1.33;;
24409;SDS011;12543;53.364;-1.504;2022-08-19T00:39:11;3.15;;;1.30;;
24409;SDS011;12543;53.364;-1.504;2022-08-19T00:41:39;3.50;;;1.13;;
24409;SDS011;12543;53.364;-1.504;2022-08-19T00:44:12;2.92;;;1.20;;
24409;SDS011;12543;53.364;-1.504;2022-08-19T00:46:43;3.30;;;1.10;;
24409;SDS011;12543;53.364;-1.504;2022-08-19T00:52:29;2.03;;;1.00;;
24409;SDS011;12543;53.364;-1.504;2022-08-19T00:54:59;2.42;;;1.08;;
24409;SDS011;12543;53.364;-1.504;2022-08-19T00:57:30;2.30;;;1.10;;
24409;SDS011;12543;53.364;-1.504;2022-08-19T01:00:01;2.45;;;1.10;;
24409;SDS011;12543;53.364;-1.504;2022-08-19T01:02:32;2.88;;;1.23;;
24409;SDS011;12543;53.364;-1.504;2022-08-19T01:05:03;3.92;;;1.10;;
24409;SDS011;12543;53.364;-1.504;2022-08-19T01:07:34;4.65;;;1.20;;
24409;SDS011;12543;53.364;-1.504;2022-08-19T01:10:04;1.77;;;1.17;;
24409;SDS011;12543;53.364;-1.504;2022-08-19T01:12:34;1.95;;;1.02;;
24409;SDS011;12543;53.364;-1.504;2022-08-19T01:15:03;3.53;;;1.10;;
24409;SDS011;12543;53.364;-1.504;2022-08-19T01:17:32;7.30;;;1.48;;
24409;SDS011;12543;53.364;-1.504;2022-08-19T01:20:00;3.97;;;1.45;;
24409;SDS011;12543;53.364;-1.504;2022-08-19T01:22:29;2.22;;;0.85;;
24409;SDS011;12543;53.364;-1.504;2022-08-19T01:25:01;3.50;;;1.10;;
24409;SDS011;12543;53.364;-1.504;2022-08-19T01:27:40;3.10;;;1.17;;
24409;SDS011;12543;53.364;-1.504;2022-08-19T01:30:13;2.92;;;1.10;;
24409;SDS011;12543;53.364;-1.504;2022-08-19T01:32:42;2.08;;;1.08;;
24409;SDS011;12543;53.364;-1.504;2022-08-19T01:35:10;3.70;;;1.20;;
24409;SDS011;12543;53.364;-1.504;2022-08-19T01:37:43;3.30;;;1.08;;
24409;SDS011;12543;53.364;-1.504;2022-08-19T01:40:10;2.42;;;1.10;;
24409;SDS011;12543;53.364;-1.504;2022-08-19T01:42:38;3.35;;;1.20;;
24409;SDS011;12543;53.364;-1.504;2022-08-19T01:45:05;3.17;;;1.33;;
24409;SDS011;12543;53.364;-1.504;2022-08-19T01:50:03;3.55;;;1.23;;
24409;SDS011;12543;53.364;-1.504;2022-08-19T01:52:34;3.50;;;1.13;;
24409;SDS011;12543;53.364;-1.504;2022-08-19T01:55:02;2.67;;;1.30;;
24409;SDS011;12543;53.364;-1.504;2022-08-19T01:57:32;2.50;;;1.10;;
24409;SDS011;12543;53.364;-1.504;2022-08-19T01:59:59;1.60;;;0.90;;
24409;SDS011;12543;53.364;-1.504;2022-08-19T02:02:36;2.60;;;0.90;;
24409;SDS011;12543;53.364;-1.504;2022-08-19T02:05:04;2.17;;;1.00;;
24409;SDS011;12543;53.364;-1.504;2022-08-19T02:07:36;3.28;;;1.00;;
24409;SDS011;12543;53.364;-1.504;2022-08-19T02:10:08;2.58;;;1.25;;
24409;SDS011;12543;53.364;-1.504;2022-08-19T02:12:38;2.85;;;1.10;;
24409;SDS011;12543;53.364;-1.504;2022-08-19T02:15:06;2.85;;;1.17;;
24409;SDS011;12543;53.364;-1.504;2022-08-19T02:17:34;4.93;;;1.37;;
24409;SDS011;12543;53.364;-1.504;2022-08-19T02:20:01;3.28;;;1.10;;
24409;SDS011;12543;53.364;-1.504;2022-08-19T02:22:28;3.33;;;1.00;;
24409;SDS011;12543;53.364;-1.504;2022-08-19T02:24:55;4.13;;;1.42;;
24409;SDS011;12543;53.364;-1.504;2022-08-19T02:27:22;3.25;;;1.20;;
24409;SDS011;12543;53.364;-1.504;2022-08-19T02:29:49;5.68;;;1.42;;
24409;SDS011;12543;53.364;-1.504;2022-08-19T02:32:17;5.43;;;1.25;;
24409;SDS011;12543;53.364;-1.504;2022-08-19T02:34:47;5.40;;;1.13;;
24409;SDS011;12543;53.364;-1.504;2022-08-19T02:37:15;3.33;;;0.97;;
24409;SDS011;12543;53.364;-1.504;2022-08-19T02:40:01;2.95;;;0.90;;
24409;SDS011;12543;53.364;-1.504;2022-08-19T02:42:37;5.43;;;1.17;;
24409;SDS011;12543;53.364;-1.504;2022-08-19T02:45:04;2.67;;;1.10;;
24409;SDS011;12543;53.364;-1.504;2022-08-19T02:47:32;4.28;;;1.40;;
24409;SDS011;12543;53.364;-1.504;2022-08-19T02:50:00;5.65;;;1.05;;
24409;SDS011;12543;53.364;-1.504;2022-08-19T02:52:29;3.50;;;1.08;;
24409;SDS011;12543;53.364;-1.504;2022-08-19T02:54:56;3.28;;;1.05;;
24409;SDS011;12543;53.364;-1.504;2022-08-19T02:57:23;2.30;;;1.13;;
24409;SDS011;12543;53.364;-1.504;2022-08-19T02:59:50;3.15;;;0.70;;
24409;SDS011;12543;53.364;-1.504;2022-08-19T03:02:18;4.45;;;1.25;;
24409;SDS011;12543;53.364;-1.504;2022-08-19T03:04:45;3.77;;;0.80;;
24409;SDS011;12543;53.364;-1.504;2022-08-19T03:07:14;4.35;;;1.13;;
24409;SDS011;12543;53.364;-1.504;2022-08-19T03:09:41;4.50;;;0.95;;
24409;SDS011;12543;53.364;-1.504;2022-08-19T03:12:09;5.57;;;1.20;;
24409;SDS011;12543;53.364;-1.504;2022-08-19T03:14:37;6.13;;;1.33;;
24409;SDS011;12543;53.364;-1.504;2022-08-19T03:17:04;6.13;;;1.27;;
24409;SDS011;12543;53.364;-1.504;2022-08-19T03:19:31;2.33;;;0.98;;
24409;SDS011;12543;53.364;-1.504;2022-08-19T03:21:58;3.30;;;0.98;;
24409;SDS011;12543;53.364;-1.504;2022-08-19T03:24:26;4.28;;;1.05;;
24409;SDS011;12543;53.364;-1.504;2022-08-19T03:26:54;4.28;;;0.85;;
24409;SDS011;12543;53.364;-1.504;2022-08-19T03:29:25;3.95;;;1.40;;
24409;SDS011;12543;53.364;-1.504;2022-08-19T03:32:00;4.13;;;1.00;;
24409;SDS011;12543;53.364;-1.504;2022-08-19T03:34:31;3.85;;;0.98;;
24409;SDS011;12543;53.364;-1.504;2022-08-19T03:37:03;3.35;;;1.20;;
24409;SDS011;12543;53.364;-1.504;2022-08-19T03:39:33;4.45;;;1.13;;
24409;SDS011;12543;53.364;-1.504;2022-08-19T03:42:01;3.42;;;1.10;;
24409;SDS011;12543;53.364;-1.504;2022-08-19T03:44:49;2.78;;;0.98;;
24409;SDS011;12543;53.364;-1.504;2022-08-19T03:47:16;2.45;;;1.02;;
24409;SDS011;12543;53.364;-1.504;2022-08-19T03:49:44;4.70;;;1.10;;
24409;SDS011;12543;53.364;-1.504;2022-08-19T03:52:11;3.85;;;1.00;;
24409;SDS011;12543;53.364;-1.504;2022-08-19T03:54:38;5.55;;;1.20;;
24409;SDS011;12543;53.364;-1.504;2022-08-19T03:57:05;3.00;;;0.80;;
24409;SDS011;12543;53.364;-1.504;2022-08-19T03:59:35;4.70;;;1.05;;
24409;SDS011;12543;53.364;-1.504;2022-08-19T04:02:06;4.10;;;1.13;;
24409;SDS011;12543;53.364;-1.504;2022-08-19T04:04:37;3.67;;;1.13;;
24409;SDS011;12543;53.364;-1.504;2022-08-19T04:07:05;6.30;;;1.20;;
24409;SDS011;12543;53.364;-1.504;2022-08-19T04:09:33;3.40;;;1.10;;
24409;SDS011;12543;53.364;-1.504;2022-08-19T04:12:03;3.90;;;0.95;;
24409;SDS011;12543;53.364;-1.504;2022-08-19T04:14:32;3.35;;;0.95;;
24409;SDS011;12543;53.364;-1.504;2022-08-19T04:17:00;4.88;;;1.45;;
24409;SDS011;12543;53.364;-1.504;2022-08-19T04:19:31;4.20;;;1.35;;
24409;SDS011;12543;53.364;-1.504;2022-08-19T04:22:00;5.18;;;1.20;;
24409;SDS011;12543;53.364;-1.504;2022-08-19T04:24:28;4.85;;;1.20;;
24409;SDS011;12543;53.364;-1.504;2022-08-19T04:26:56;7.00;;;1.73;;
24409;SDS011;12543;53.364;-1.504;2022-08-19T04:29:25;5.90;;;1.20;;
24409;SDS011;12543;53.364;-1.504;2022-08-19T04:31:54;5.97;;;1.85;;
24409;SDS011;12543;53.364;-1.504;2022-08-19T04:34:23;3.83;;;1.10;;
24409;SDS011;12543;53.364;-1.504;2022-08-19T04:36:53;3.90;;;1.30;;
24409;SDS011;12543;53.364;-1.504;2022-08-19T04:39:23;5.93;;;1.65;;
24409;SDS011;12543;53.364;-1.504;2022-08-19T04:42:11;5.78;;;1.42;;
24409;SDS011;12543;53.364;-1.504;2022-08-19T04:44:57;7.22;;;1.58;;
24409;SDS011;12543;53.364;-1.504;2022-08-19T04:47:25;3.75;;;1.10;;
24409;SDS011;12543;53.364;-1.504;2022-08-19T04:50:12;3.53;;;1.02;;
24409;SDS011;12543;53.364;-1.504;2022-08-19T04:52:40;4.78;;;1.13;;
24409;SDS011;12543;53.364;-1.504;2022-08-19T04:55:10;4.28;;;1.02;;
24409;SDS011;12543;53.364;-1.504;2022-08-19T04:57:38;5.07;;;1.30;;
24409;SDS011;12543;53.364;-1.504;2022-08-19T05:00:09;3.92;;;1.20;;
24409;SDS011;12543;53.364;-1.504;2022-08-19T05:02:37;4.80;;;1.17;;
24409;SDS011;12543;53.364;-1.504;2022-08-19T05:05:05;7.60;;;2.00;;
24409;SDS011;12543;53.364;-1.504;2022-08-19T05:07:33;6.18;;;1.40;;
24409;SDS011;12543;53.364;-1.504;2022-08-19T05:10:00;6.40;;;1.00;;
24409;SDS011;12543;53.364;-1.504;2022-08-19T05:14:56;4.43;;;1.00;;
24409;SDS011;12543;53.364;-1.504;2022-08-19T05:17:27;3.35;;;1.08;;
24409;SDS011;12543;53.364;-1.504;2022-08-19T05:20:00;2.83;;;1.13;;
24409;SDS011;12543;53.364;-1.504;2022-08-19T05:22:46;3.33;;;1.00;;
24409;SDS011;12543;53.364;-1.504;2022-08-19T05:25:16;3.42;;;1.08;;
24409;SDS011;12543;53.364;-1.504;2022-08-19T05:27:46;5.13;;;1.55;;
24409;SDS011;12543;53.364;-1.504;2022-08-19T05:30:13;4.70;;;1.23;;
24409;SDS011;12543;53.364;-1.504;2022-08-19T05:32:41;5.68;;;1.40;;
24409;SDS011;12543;53.364;-1.504;2022-08-19T05:35:09;4.03;;;1.40;;
24409;SDS011;12543;53.364;-1.504;2022-08-19T05:37:37;3.53;;;1.05;;
24409;SDS011;12543;53.364;-1.504;2022-08-19T05:40:07;5.40;;;1.23;;
24409;SDS011;12543;53.364;-1.504;2022-08-19T05:42:34;3.53;;;1.35;;
24409;SDS011;12543;53.364;-1.504;2022-08-19T05:45:02;4.05;;;0.98;;
24409;SDS011;12543;53.364;-1.504;2022-08-19T05:47:32;5.35;;;1.33;;
24409;SDS011;12543;53.364;-1.504;2022-08-19T05:50:13;2.15;;;1.00;;
24409;SDS011;12543;53.364;-1.504;2022-08-19T05:52:40;4.22;;;1.08;;
24409;SDS011;12543;53.364;-1.504;2022-08-19T05:55:15;4.93;;;1.10;;
24409;SDS011;12543;53.364;-1.504;2022-08-19T05:57:42;2.33;;;0.80;;
24409;SDS011;12543;53.364;-1.504;2022-08-19T06:00:09;4.53;;;1.15;;
24409;SDS011;12543;53.364;-1.504;2022-08-19T06:02:37;3.50;;;1.00;;
24409;SDS011;12543;53.364;-1.504;2022-08-19T06:05:05;2.30;;;0.80;;
24409;SDS011;12543;53.364;-1.504;2022-08-19T06:07:36;4.40;;;1.17;;
24409;SDS011;12543;53.364;-1.504;2022-08-19T06:10:07;5.85;;;1.50;;
24409;SDS011;12543;53.364;-1.504;2022-08-19T06:12:36;3.45;;;0.95;;
24409;SDS011;12543;53.364;-1.504;2022-08-19T06:15:08;6.40;;;1.93;;
24409;SDS011;12543;53.364;-1.504;2022-08-19T06:17:38;3.90;;;1.00;;
24409;SDS011;12543;53.364;-1.504;2022-08-19T06:20:06;4.25;;;1.52;;
24409;SDS011;12543;53.364;-1.504;2022-08-19T06:22:40;5.80;;;1.25;;
24409;SDS011;12543;53.364;-1.504;2022-08-19T06:25:09;2.92;;;1.23;;
24409;SDS011;12543;53.364;-1.504;2022-08-19T06:27:37;4.18;;;1.10;;
24409;SDS011;12543;53.364;-1.504;2022-08-19T06:30:24;8.05;;;1.50;;
24409;SDS011;12543;53.364;-1.504;2022-08-19T06:32:51;5.20;;;1.25;;
24409;SDS011;12543;53.364;-1.504;2022-08-19T06:35:18;3.72;;;1.25;;
24409;SDS011;12543;53.364;-1.504;2022-08-19T06:37:45;1.75;;;0.80;;
24409;SDS011;12543;53.364;-1.504;2022-08-19T06:40:13;3.33;;;0.90;;
24409;SDS011;12543;53.364;-1.504;2022-08-19T06:42:40;3.47;;;0.90;;
24409;SDS011;12543;53.364;-1.504;2022-08-19T06:45:19;4.28;;;1.05;;
24409;SDS011;12543;53.364;-1.504;2022-08-19T06:48:00;4.78;;;1.38;;
24409;SDS011;12543;53.364;-1.504;2022-08-19T06:50:28;4.85;;;1.30;;
24409;SDS011;12543;53.364;-1.504;2022-08-19T06:52:55;3.20;;;1.15;;
24409;SDS011;12543;53.364;-1.504;2022-08-19T06:55:25;1.88;;;0.90;;
24409;SDS011;12543;53.364;-1.504;2022-08-19T06:57:52;2.30;;;1.00;;
24409;SDS011;12543;53.364;-1.504;2022-08-19T07:00:20;5.50;;;1.20;;
24409;SDS011;12543;53.364;-1.504;2022-08-19T07:02:47;3.63;;;1.35;;
24409;SDS011;12543;53.364;-1.504;2022-08-19T07:05:22;6.30;;;1.52;;
24409;SDS011;12543;53.364;-1.504;2022-08-19T07:07:49;2.75;;;1.13;;
24409;SDS011;12543;53.364;-1.504;2022-08-19T07:10:17;4.63;;;1.10;;
24409;SDS011;12543;53.364;-1.504;2022-08-19T07:12:45;3.25;;;1.00;;
24409;SDS011;12543;53.364;-1.504;2022-08-19T07:15:13;5.57;;;1.42;;
24409;SDS011;12543;53.364;-1.504;2022-08-19T07:17:44;5.60;;;1.35;;
24409;SDS011;12543;53.364;-1.504;2022-08-19T07:20:14;3.88;;;1.17;;
24409;SDS011;12543;53.364;-1.504;2022-08-19T07:22:43;5.47;;;1.58;;
24409;SDS011;12543;53.364;-1.504;2022-08-19T07:25:11;4.60;;;1.35;;
24409;SDS011;12543;53.364;-1.504;2022-08-19T07:27:39;7.53;;;1.58;;
24409;SDS011;12543;53.364;-1.504;2022-08-19T07:30:07;5.85;;;1.35;;
24409;SDS011;12543;53.364;-1.504;2022-08-19T07:32:37;4.65;;;1.38;;
24409;SDS011;12543;53.364;-1.504;2022-08-19T07:35:05;5.97;;;1.60;;
24409;SDS011;12543;53.364;-1.504;2022-08-19T07:40:04;8.40;;;1.85;;
24409;SDS011;12543;53.364;-1.504;2022-08-19T07:42:33;5.13;;;1.52;;
24409;SDS011;12543;53.364;-1.504;2022-08-19T07:45:00;5.82;;;1.40;;
24409;SDS011;12543;53.364;-1.504;2022-08-19T07:47:27;6.95;;;1.70;;
24409;SDS011;12543;53.364;-1.504;2022-08-19T07:50:14;3.65;;;1.33;;
24409;SDS011;12543;53.364;-1.504;2022-08-19T07:52:41;8.05;;;1.67;;
24409;SDS011;12543;53.364;-1.504;2022-08-19T07:55:14;7.30;;;1.70;;
24409;SDS011;12543;53.364;-1.504;2022-08-19T07:58:03;5.63;;;1.70;;
24409;SDS011;12543;53.364;-1.504;2022-08-19T08:00:31;9.65;;;1.90;;
24409;SDS011;12543;53.364;-1.504;2022-08-19T08:02:58;5.20;;;1.50;;
24409;SDS011;12543;53.364;-1.504;2022-08-19T08:05:25;5.00;;;1.58;;
24409;SDS011;12543;53.364;-1.504;2022-08-19T08:08:11;4.47;;;1.70;;
24409;SDS011;12543;53.364;-1.504;2022-08-19T08:10:57;8.90;;;2.47;;
24409;SDS011;12543;53.364;-1.504;2022-08-19T08:13:25;6.55;;;1.42;;
24409;SDS011;12543;53.364;-1.504;2022-08-19T08:15:54;4.85;;;1.65;;
24409;SDS011;12543;53.364;-1.504;2022-08-19T08:18:22;9.55;;;1.92;;
24409;SDS011;12543;53.364;-1.504;2022-08-19T08:20:53;3.60;;;1.42;;
24409;SDS011;12543;53.364;-1.504;2022-08-19T08:23:21;6.03;;;1.83;;
24409;SDS011;12543;53.364;-1.504;2022-08-19T08:25:49;3.05;;;1.00;;
24409;SDS011;12543;53.364;-1.504;2022-08-19T08:28:16;5.20;;;1.40;;
24409;SDS011;12543;53.364;-1.504;2022-08-19T08:30:45;6.88;;;1.70;;
24409;SDS011;12543;53.364;-1.504;2022-08-19T08:33:18;5.70;;;1.50;;
24409;SDS011;12543;53.364;-1.504;2022-08-19T08:36:06;6.10;;;1.33;;
24409;SDS011;12543;53.364;-1.504;2022-08-19T08:38:35;4.95;;;1.25;;
24409;SDS011;12543;53.364;-1.504;2022-08-19T08:43:54;6.72;;;1.85;;
24409;SDS011;12543;53.364;-1.504;2022-08-19T08:46:30;6.57;;;1.20;;
24409;SDS011;12543;53.364;-1.504;2022-08-19T08:49:06;3.92;;;1.38;;
24409;SDS011;12543;53.364;-1.504;2022-08-19T08:54:35;6.60;;;1.50;;
24409;SDS011;12543;53.364;-1.504;2022-08-19T09:00:30;3.47;;;1.27;;
24409;SDS011;12543;53.364;-1.504;2022-08-19T09:03:02;3.10;;;1.08;;
24409;SDS011;12543;53.364;-1.504;2022-08-19T09:10:56;4.47;;;1.33;;
24409;SDS011;12543;53.364;-1.504;2022-08-19T09:21:24;4.82;;;1.35;;
24409;SDS011;12543;53.364;-1.504;2022-08-19T09:23:58;7.15;;;1.30;;
24409;SDS011;12543;53.364;-1.504;2022-08-19T09:26:28;5.97;;;1.33;;
24409;SDS011;12543;53.364;-1.504;2022-08-19T09:29:18;6.18;;;1.52;;
24409;SDS011;12543;53.364;-1.504;2022-08-19T09:31:48;6.43;;;1.40;;
24409;SDS011;12543;53.364;-1.504;2022-08-19T09:34:16;4.95;;;1.65;;
24409;SDS011;12543;53.364;-1.504;2022-08-19T09:36:47;4.97;;;1.20;;
24409;SDS011;12543;53.364;-1.504;2022-08-19T09:39:20;6.20;;;1.50;;
24409;SDS011;12543;53.364;-1.504;2022-08-19T09:41:48;4.10;;;1.60;;
24409;SDS011;12543;53.364;-1.504;2022-08-19T09:44:16;5.97;;;2.15;;
24409;SDS011;12543;53.364;-1.504;2022-08-19T09:46:44;6.35;;;1.40;;
24409;SDS011;12543;53.364;-1.504;2022-08-19T09:49:14;4.97;;;1.40;;
24409;SDS011;12543;53.364;-1.504;2022-08-19T09:51:44;6.40;;;1.50;;
24409;SDS011;12543;53.364;-1.504;2022-08-19T09:54:17;6.50;;;1.88;;
24409;SDS011;12543;53.364;-1.504;2022-08-19T09:56:50;3.35;;;1.30;;
24409;SDS011;12543;53.364;-1.504;2022-08-19T09:59:18;5.63;;;1.30;;
24409;SDS011;12543;53.364;-1.504;2022-08-19T10:01:46;3.45;;;1.20;;
24409;SDS011;12543;53.364;-1.504;2022-08-19T10:04:14;5.20;;;2.10;;
24409;SDS011;12543;53.364;-1.504;2022-08-19T10:06:48;4.00;;;1.75;;
24409;SDS011;12543;53.364;-1.504;2022-08-19T10:09:19;5.45;;;1.38;;
24409;SDS011;12543;53.364;-1.504;2022-08-19T10:12:01;4.25;;;1.27;;
24409;SDS011;12543;53.364;-1.504;2022-08-19T10:14:31;3.92;;;1.45;;
24409;SDS011;12543;53.364;-1.504;2022-08-19T10:16:59;3.88;;;1.58;;
24409;SDS011;12543;53.364;-1.504;2022-08-19T10:19:43;5.55;;;2.10;;
24409;SDS011;12543;53.364;-1.504;2022-08-19T10:22:21;3.67;;;1.58;;
24409;SDS011;12543;53.364;-1.504;2022-08-19T10:24:51;7.32;;;1.90;;
24409;SDS011;12543;53.364;-1.504;2022-08-19T10:27:18;4.53;;;1.60;;
24409;SDS011;12543;53.364;-1.504;2022-08-19T10:29:45;3.85;;;1.27;;
24409;SDS011;12543;53.364;-1.504;2022-08-19T10:34:41;4.85;;;1.50;;
24409;SDS011;12543;53.364;-1.504;2022-08-19T10:37:14;5.53;;;1.80;;
24409;SDS011;12543;53.364;-1.504;2022-08-19T10:39:54;5.68;;;1.52;;
24409;SDS011;12543;53.364;-1.504;2022-08-19T10:42:21;6.20;;;1.60;;
24409;SDS011;12543;53.364;-1.504;2022-08-19T10:44:48;5.53;;;1.33;;
24409;SDS011;12543;53.364;-1.504;2022-08-19T10:47:17;4.30;;;1.58;;
24409;SDS011;12543;53.364;-1.504;2022-08-19T10:49:52;5.03;;;1.60;;
24409;SDS011;12543;53.364;-1.504;2022-08-19T10:52:39;4.20;;;1.50;;
24409;SDS011;12543;53.364;-1.504;2022-08-19T10:55:15;5.55;;;1.50;;
24409;SDS011;12543;53.364;-1.504;2022-08-19T10:58:02;4.55;;;1.50;;
24409;SDS011;12543;53.364;-1.504;2022-08-19T11:00:30;4.10;;;1.20;;
24409;SDS011;12543;53.364;-1.504;2022-08-19T11:02:58;4.63;;;1.53;;
24409;SDS011;12543;53.364;-1.504;2022-08-19T11:05:25;4.45;;;1.60;;
24409;SDS011;12543;53.364;-1.504;2022-08-19T11:07:52;4.47;;;1.20;;
24409;SDS011;12543;53.364;-1.504;2022-08-19T11:10:19;5.00;;;1.50;;
24409;SDS011;12543;53.364;-1.504;2022-08-19T11:12:47;5.68;;;1.60;;
24409;SDS011;12543;53.364;-1.504;2022-08-19T11:15:15;3.67;;;1.37;;
24409;SDS011;12543;53.364;-1.504;2022-08-19T11:17:42;4.67;;;1.20;;
24409;SDS011;12543;53.364;-1.504;2022-08-19T11:20:11;3.33;;;1.35;;
24409;SDS011;12543;53.364;-1.504;2022-08-19T11:22:39;3.85;;;1.27;;
24409;SDS011;12543;53.364;-1.504;2022-08-19T11:25:08;2.88;;;1.20;;
24409;SDS011;12543;53.364;-1.504;2022-08-19T11:27:38;3.53;;;1.20;;
24409;SDS011;12543;53.364;-1.504;2022-08-19T11:30:11;3.83;;;1.42;;
24409;SDS011;12543;53.364;-1.504;2022-08-19T11:32:40;2.47;;;0.90;;
24409;SDS011;12543;53.364;-1.504;2022-08-19T11:35:12;2.60;;;0.93;;
24409;SDS011;12543;53.364;-1.504;2022-08-19T11:37:39;2.73;;;0.90;;
24409;SDS011;12543;53.364;-1.504;2022-08-19T11:40:07;2.05;;;1.10;;
24409;SDS011;12543;53.364;-1.504;2022-08-19T11:42:34;3.03;;;0.98;;
24409;SDS011;12543;53.364;-1.504;2022-08-19T11:45:20;2.60;;;1.15;;
24409;SDS011;12543;53.364;-1.504;2022-08-19T11:47:47;4.35;;;1.35;;
24409;SDS011;12543;53.364;-1.504;2022-08-19T11:50:15;2.77;;;1.17;;
24409;SDS011;12543;53.364;-1.504;2022-08-19T11:52:43;2.28;;;1.08;;
24409;SDS011;12543;53.364;-1.504;2022-08-19T11:55:11;2.72;;;1.08;;
24409;SDS011;12543;53.364;-1.504;2022-08-19T11:57:40;3.40;;;1.17;;
24409;SDS011;12543;53.364;-1.504;2022-08-19T12:00:07;4.32;;;1.00;;
24409;SDS011;12543;53.364;-1.504;2022-08-19T12:02:37;2.90;;;0.90;;
24409;SDS011;12543;53.364;-1.504;2022-08-19T12:05:04;2.30;;;1.03;;
24409;SDS011;12543;53.364;-1.504;2022-08-19T12:07:38;3.22;;;0.95;;
24409;SDS011;12543;53.364;-1.504;2022-08-19T12:10:07;3.22;;;1.05;;
24409;SDS011;12543;53.364;-1.504;2022-08-19T12:12:36;3.35;;;1.23;;
24409;SDS011;12543;53.364;-1.504;2022-08-19T12:15:09;2.83;;;1.20;;
24409;SDS011;12543;53.364;-1.504;2022-08-19T12:17:37;1.65;;;0.70;;
24409;SDS011;12543;53.364;-1.504;2022-08-19T12:20:05;4.25;;;1.50;;
24409;SDS011;12543;53.364;-1.504;2022-08-19T12:22:34;5.63;;;1.33;;
24409;SDS011;12543;53.364;-1.504;2022-08-19T12:25:02;3.05;;;0.90;;
24409;SDS011;12543;53.364;-1.504;2022-08-19T12:27:30;3.80;;;1.27;;
24409;SDS011;12543;53.364;-1.504;2022-08-19T12:30:07;4.13;;;1.00;;
24409;SDS011;12543;53.364;-1.504;2022-08-19T12:32:37;4.63;;;1.42;;
24409;SDS011;12543;53.364;-1.504;2022-08-19T12:35:04;4.30;;;1.30;;
24409;SDS011;12543;53.364;-1.504;2022-08-19T12:37:33;6.03;;;1.45;;
24409;SDS011;12543;53.364;-1.504;2022-08-19T12:40:00;3.63;;;1.00;;
24409;SDS011;12543;53.364;-1.504;2022-08-19T12:47:23;2.23;;;1.00;;
24409;SDS011;12543;53.364;-1.504;2022-08-19T12:49:52;1.92;;;0.90;;
24409;SDS011;12543;53.364;-1.504;2022-08-19T12:52:22;2.15;;;0.73;;
24409;SDS011;12543;53.364;-1.504;2022-08-19T12:54:51;2.35;;;0.82;;
24409;SDS011;12543;53.364;-1.504;2022-08-19T12:57:21;1.63;;;0.60;;
24409;SDS011;12543;53.364;-1.504;2022-08-19T12:59:57;1.50;;;0.60;;
24409;SDS011;12543;53.364;-1.504;2022-08-19T13:02:26;2.88;;;0.70;;
24409;SDS011;12543;53.364;-1.504;2022-08-19T13:04:53;2.42;;;0.60;;
24409;SDS011;12543;53.364;-1.504;2022-08-19T13:07:20;1.90;;;0.70;;
24409;SDS011;12543;53.364;-1.504;2022-08-19T13:09:47;2.08;;;0.55;;
24409;SDS011;12543;53.364;-1.504;2022-08-19T13:12:18;0.85;;;0.57;;
24409;SDS011;12543;53.364;-1.504;2022-08-19T13:14:50;0.95;;;0.40;;
24409;SDS011;12543;53.364;-1.504;2022-08-19T13:17:18;1.13;;;0.40;;
24409;SDS011;12543;53.364;-1.504;2022-08-19T13:19:46;1.55;;;0.50;;
24409;SDS011;12543;53.364;-1.504;2022-08-19T13:22:13;1.55;;;0.57;;
24409;SDS011;12543;53.364;-1.504;2022-08-19T13:24:40;2.40;;;0.70;;
24409;SDS011;12543;53.364;-1.504;2022-08-19T13:27:12;1.02;;;0.50;;
24409;SDS011;12543;53.364;-1.504;2022-08-19T13:29:40;2.35;;;0.47;;
24409;SDS011;12543;53.364;-1.504;2022-08-19T13:32:26;1.08;;;0.32;;
24409;SDS011;12543;53.364;-1.504;2022-08-19T13:35:14;1.83;;;0.50;;
24409;SDS011;12543;53.364;-1.504;2022-08-19T13:37:42;1.65;;;0.57;;
24409;SDS011;12543;53.364;-1.504;2022-08-19T13:40:14;0.75;;;0.30;;
24409;SDS011;12543;53.364;-1.504;2022-08-19T13:42:46;1.20;;;0.57;;
24409;SDS011;12543;53.364;-1.504;2022-08-19T13:45:15;1.27;;;0.60;;
24409;SDS011;12543;53.364;-1.504;2022-08-19T13:47:48;1.00;;;0.43;;
24409;SDS011;12543;53.364;-1.504;2022-08-19T13:50:23;1.23;;;0.50;;
24409;SDS011;12543;53.364;-1.504;2022-08-19T13:52:54;0.63;;;0.40;;
24409;SDS011;12543;53.364;-1.504;2022-08-19T13:55:22;0.80;;;0.52;;
24409;SDS011;12543;53.364;-1.504;2022-08-19T13:57:51;0.80;;;0.45;;
24409;SDS011;12543;53.364;-1.504;2022-08-19T14:00:20;2.45;;;0.40;;
24409;SDS011;12543;53.364;-1.504;2022-08-19T14:02:51;0.98;;;0.40;;
24409;SDS011;12543;53.364;-1.504;2022-08-19T14:05:20;2.05;;;0.50;;
24409;SDS011;12543;53.364;-1.504;2022-08-19T14:07:47;0.93;;;0.47;;
24409;SDS011;12543;53.364;-1.504;2022-08-19T14:10:15;1.27;;;0.28;;
24409;SDS011;12543;53.364;-1.504;2022-08-19T14:12:42;1.10;;;0.50;;
24409;SDS011;12543;53.364;-1.504;2022-08-19T14:15:10;0.63;;;0.30;;
24409;SDS011;12543;53.364;-1.504;2022-08-19T14:17:41;1.95;;;0.63;;
24409;SDS011;12543;53.364;-1.504;2022-08-19T14:20:10;1.45;;;0.70;;
24409;SDS011;12543;53.364;-1.504;2022-08-19T14:22:44;1.55;;;0.45;;
24409;SDS011;12543;53.364;-1.504;2022-08-19T14:25:14;1.50;;;0.60;;
24409;SDS011;12543;53.364;-1.504;2022-08-19T14:27:46;1.38;;;0.60;;
24409;SDS011;12543;53.364;-1.504;2022-08-19T14:30:16;2.25;;;0.50;;
24409;SDS011;12543;53.364;-1.504;2022-08-19T14:32:46;2.00;;;0.50;;
24409;SDS011;12543;53.364;-1.504;2022-08-19T14:35:13;0.50;;;0.30;;
24409;SDS011;12543;53.364;-1.504;2022-08-19T14:40:12;0.90;;;0.60;;
24409;SDS011;12543;53.364;-1.504;2022-08-19T14:42:42;0.60;;;0.38;;
24409;SDS011;12543;53.364;-1.504;2022-08-19T14:45:10;0.55;;;0.30;;
24409;SDS011;12543;53.364;-1.504;2022-08-19T14:47:38;1.73;;;0.40;;
24409;SDS011;12543;53.364;-1.504;2022-08-19T14:50:10;1.02;;;0.45;;
24409;SDS011;12543;53.364;-1.504;2022-08-19T14:52:47;2.58;;;0.60;;
24409;SDS011;12543;53.364;-1.504;2022-08-19T14:55:15;1.20;;;0.45;;
24409;SDS011;12543;53.364;-1.504;2022-08-19T14:57:43;0.90;;;0.50;;
24409;SDS011;12543;53.364;-1.504;2022-08-19T15:00:12;1.20;;;0.38;;
24409;SDS011;12543;53.364;-1.504;2022-08-19T15:02:40;1.55;;;0.50;;
24409;SDS011;12543;53.364;-1.504;2022-08-19T15:07:35;1.40;;;0.40;;
24409;SDS011;12543;53.364;-1.504;2022-08-19T15:10:04;2.78;;;0.60;;
24409;SDS011;12543;53.364;-1.504;2022-08-19T15:12:36;1.10;;;0.57;;
24409;SDS011;12543;53.364;-1.504;2022-08-19T15:15:09;2.65;;;0.68;;
24409;SDS011;12543;53.364;-1.504;2022-08-19T15:17:42;1.58;;;0.47;;
24409;SDS011;12543;53.364;-1.504;2022-08-19T15:20:13;2.15;;;0.68;;
24409;SDS011;12543;53.364;-1.504;2022-08-19T15:22:41;1.13;;;0.40;;
24409;SDS011;12543;53.364;-1.504;2022-08-19T15:25:09;0.40;;;0.33;;
24409;SDS011;12543;53.364;-1.504;2022-08-19T15:27:39;1.95;;;0.60;;
24409;SDS011;12543;53.364;-1.504;2022-08-19T15:30:08;2.13;;;0.60;;
24409;SDS011;12543;53.364;-1.504;2022-08-19T15:32:37;1.55;;;0.40;;
24409;SDS011;12543;53.364;-1.504;2022-08-19T15:35:05;1.90;;;0.60;;
24409;SDS011;12543;53.364;-1.504;2022-08-19T15:37:33;1.25;;;0.52;;